sensor_id;sensor_type;location;lat;lon;timestamp;P1;durP1;ratioP1;P2;durP2;ratioP2
13319;SDS011;59599;47.608;12.190;2023-02-28T01:26:13;3.63;;;3.10;;
13319;SDS011;59599;47.608;12.190;2023-02-28T01:28:39;7.73;;;4.30;;
13319;SDS011;59599;47.608;12.190;2023-02-28T01:31:05;4.43;;;3.67;;
13319;SDS011;59599;47.608;12.190;2023-02-28T01:33:31;4.77;;;3.60;;
13319;SDS011;59599;47.608;12.190;2023-02-28T01:36:08;5.87;;;3.93;;
13319;SDS011;59599;47.608;12.190;2023-02-28T01:38:35;4.53;;;3.60;;
13319;SDS011;59599;47.608;12.190;2023-02-28T01:41:01;7.37;;;4.30;;
13319;SDS011;59599;47.608;12.190;2023-02-28T01:43:28;5.50;;;3.93;;
13319;SDS011;59599;47.608;12.190;2023-02-28T01:45:55;6.83;;;4.50;;
13319;SDS011;59599;47.608;12.190;2023-02-28T01:48:23;7.07;;;3.93;;
13319;SDS011;59599;47.608;12.190;2023-02-28T01:50:56;6.40;;;3.97;;
13319;SDS011;59599;47.608;12.190;2023-02-28T01:53:26;5.50;;;3.70;;
13319;SDS011;59599;47.608;12.190;2023-02-28T01:55:55;5.37;;;3.90;;
13319;SDS011;59599;47.608;12.190;2023-02-28T01:58:22;5.20;;;3.80;;
13319;SDS011;59599;47.608;12.190;2023-02-28T02:00:48;6.10;;;4.33;;
13319;SDS011;59599;47.608;12.190;2023-02-28T02:03:14;8.77;;;4.23;;
13319;SDS011;59599;47.608;12.190;2023-02-28T02:05:43;6.53;;;4.67;;
13319;SDS011;59599;47.608;12.190;2023-02-28T02:08:13;6.20;;;4.43;;
13319;SDS011;59599;47.608;12.190;2023-02-28T02:10:44;5.30;;;3.83;;
13319;SDS011;59599;47.608;12.190;2023-02-28T02:18:43;4.83;;;3.97;;
13319;SDS011;59599;47.608;12.190;2023-02-28T02:24:11;6.83;;;4.33;;
13319;SDS011;59599;47.608;12.190;2023-02-28T02:29:20;7.10;;;4.20;;
13319;SDS011;59599;47.608;12.190;2023-02-28T02:37:07;7.70;;;4.50;;
13319;SDS011;59599;47.608;12.190;2023-02-28T02:40:09;6.53;;;4.10;;
13319;SDS011;59599;47.608;12.190;2023-02-28T02:45:03;5.87;;;4.50;;
13319;SDS011;59599;47.608;12.190;2023-02-28T02:47:33;5.33;;;3.93;;
13319;SDS011;59599;47.608;12.190;2023-02-28T02:50:02;5.40;;;4.33;;
13319;SDS011;59599;47.608;12.190;2023-02-28T02:52:39;5.97;;;4.53;;
13319;SDS011;59599;47.608;12.190;2023-02-28T02:55:06;4.63;;;4.10;;
13319;SDS011;59599;47.608;12.190;2023-02-28T02:57:47;5.43;;;4.10;;
13319;SDS011;59599;47.608;12.190;2023-02-28T03:00:19;6.40;;;3.80;;
13319;SDS011;59599;47.608;12.190;2023-02-28T03:02:47;5.03;;;4.20;;
13319;SDS011;59599;47.608;12.190;2023-02-28T03:05:20;5.77;;;3.80;;
13319;SDS011;59599;47.608;12.190;2023-02-28T03:07:47;4.80;;;4.13;;
13319;SDS011;59599;47.608;12.190;2023-02-28T03:10:33;5.90;;;3.70;;
13319;SDS011;59599;47.608;12.190;2023-02-28T03:13:03;4.83;;;3.70;;
13319;SDS011;59599;47.608;12.190;2023-02-28T03:18:40;4.80;;;4.00;;
13319;SDS011;59599;47.608;12.190;2023-02-28T03:21:14;5.23;;;4.43;;
13319;SDS011;59599;47.608;12.190;2023-02-28T03:24:03;7.27;;;4.10;;
13319;SDS011;59599;47.608;12.190;2023-02-28T03:26:29;5.17;;;3.97;;
13319;SDS011;59599;47.608;12.190;2023-02-28T03:29:06;6.30;;;4.30;;
13319;SDS011;59599;47.608;12.190;2023-02-28T03:34:24;4.87;;;4.10;;
13319;SDS011;59599;47.608;12.190;2023-02-28T03:36:53;5.23;;;4.50;;
13319;SDS011;59599;47.608;12.190;2023-02-28T03:39:24;6.27;;;4.30;;
13319;SDS011;59599;47.608;12.190;2023-02-28T03:42:24;6.90;;;4.40;;
13319;SDS011;59599;47.608;12.190;2023-02-28T03:44:51;6.03;;;4.20;;
13319;SDS011;59599;47.608;12.190;2023-02-28T03:49:56;8.23;;;4.23;;
13319;SDS011;59599;47.608;12.190;2023-02-28T03:52:27;5.43;;;4.40;;
13319;SDS011;59599;47.608;12.190;2023-02-28T03:54:56;5.97;;;4.17;;
13319;SDS011;59599;47.608;12.190;2023-02-28T03:57:25;5.53;;;4.33;;
13319;SDS011;59599;47.608;12.190;2023-02-28T03:59:56;4.63;;;4.13;;
13319;SDS011;59599;47.608;12.190;2023-02-28T04:02:34;5.87;;;4.07;;
13319;SDS011;59599;47.608;12.190;2023-02-28T04:05:00;4.90;;;4.07;;
13319;SDS011;59599;47.608;12.190;2023-02-28T04:07:30;5.03;;;3.83;;
13319;SDS011;59599;47.608;12.190;2023-02-28T04:09:55;5.43;;;4.23;;
13319;SDS011;59599;47.608;12.190;2023-02-28T04:12:21;4.90;;;4.40;;
13319;SDS011;59599;47.608;12.190;2023-02-28T04:14:48;7.90;;;4.37;;
13319;SDS011;59599;47.608;12.190;2023-02-28T04:17:14;5.47;;;4.10;;
13319;SDS011;59599;47.608;12.190;2023-02-28T04:19:40;5.30;;;3.90;;
13319;SDS011;59599;47.608;12.190;2023-02-28T04:22:07;5.13;;;4.33;;
13319;SDS011;59599;47.608;12.190;2023-02-28T04:24:33;6.00;;;4.53;;
13319;SDS011;59599;47.608;12.190;2023-02-28T04:26:59;5.03;;;4.20;;
13319;SDS011;59599;47.608;12.190;2023-02-28T04:29:27;6.83;;;4.73;;
13319;SDS011;59599;47.608;12.190;2023-02-28T04:31:54;6.67;;;4.80;;
13319;SDS011;59599;47.608;12.190;2023-02-28T04:34:24;5.33;;;4.20;;
13319;SDS011;59599;47.608;12.190;2023-02-28T04:36:53;5.97;;;5.00;;
13319;SDS011;59599;47.608;12.190;2023-02-28T04:39:20;7.60;;;5.00;;
13319;SDS011;59599;47.608;12.190;2023-02-28T04:41:46;6.27;;;4.67;;
13319;SDS011;59599;47.608;12.190;2023-02-28T04:44:12;6.37;;;4.73;;
13319;SDS011;59599;47.608;12.190;2023-02-28T04:46:38;6.10;;;4.90;;
13319;SDS011;59599;47.608;12.190;2023-02-28T04:49:04;6.07;;;4.90;;
13319;SDS011;59599;47.608;12.190;2023-02-28T04:51:30;6.60;;;5.10;;
13319;SDS011;59599;47.608;12.190;2023-02-28T04:53:56;7.53;;;4.77;;
13319;SDS011;59599;47.608;12.190;2023-02-28T04:56:22;8.57;;;5.00;;
13319;SDS011;59599;47.608;12.190;2023-02-28T04:58:48;14.13;;;5.17;;
13319;SDS011;59599;47.608;12.190;2023-02-28T05:01:25;7.17;;;4.77;;
13319;SDS011;59599;47.608;12.190;2023-02-28T05:03:53;6.43;;;5.00;;
13319;SDS011;59599;47.608;12.190;2023-02-28T05:06:21;5.73;;;5.03;;
13319;SDS011;59599;47.608;12.190;2023-02-28T05:08:51;6.53;;;5.77;;
13319;SDS011;59599;47.608;12.190;2023-02-28T05:13:44;8.37;;;6.07;;
13319;SDS011;59599;47.608;12.190;2023-02-28T05:16:10;8.30;;;6.03;;
13319;SDS011;59599;47.608;12.190;2023-02-28T05:18:37;8.70;;;6.43;;
13319;SDS011;59599;47.608;12.190;2023-02-28T05:21:03;9.73;;;6.20;;
13319;SDS011;59599;47.608;12.190;2023-02-28T05:23:29;9.43;;;6.03;;
13319;SDS011;59599;47.608;12.190;2023-02-28T05:25:55;9.97;;;6.20;;
13319;SDS011;59599;47.608;12.190;2023-02-28T05:28:21;11.23;;;6.20;;
13319;SDS011;59599;47.608;12.190;2023-02-28T05:30:47;6.60;;;4.97;;
13319;SDS011;59599;47.608;12.190;2023-02-28T05:33:13;5.90;;;5.10;;
13319;SDS011;59599;47.608;12.190;2023-02-28T05:35:40;17.23;;;5.80;;
13319;SDS011;59599;47.608;12.190;2023-02-28T05:38:07;8.60;;;5.83;;
13319;SDS011;59599;47.608;12.190;2023-02-28T05:40:33;6.43;;;5.30;;
13319;SDS011;59599;47.608;12.190;2023-02-28T05:42:59;8.53;;;5.60;;
13319;SDS011;59599;47.608;12.190;2023-02-28T05:45:25;7.27;;;5.43;;
13319;SDS011;59599;47.608;12.190;2023-02-28T05:47:54;8.00;;;5.43;;
13319;SDS011;59599;47.608;12.190;2023-02-28T05:50:20;7.37;;;5.50;;
13319;SDS011;59599;47.608;12.190;2023-02-28T05:52:50;6.40;;;5.03;;
13319;SDS011;59599;47.608;12.190;2023-02-28T05:55:16;7.07;;;5.10;;
13319;SDS011;59599;47.608;12.190;2023-02-28T05:57:42;7.87;;;5.27;;
13319;SDS011;59599;47.608;12.190;2023-02-28T06:00:08;10.33;;;5.13;;
13319;SDS011;59599;47.608;12.190;2023-02-28T06:02:34;7.47;;;5.63;;
13319;SDS011;59599;47.608;12.190;2023-02-28T06:05:00;7.47;;;5.50;;
13319;SDS011;59599;47.608;12.190;2023-02-28T06:07:26;6.90;;;5.47;;
13319;SDS011;59599;47.608;12.190;2023-02-28T06:09:52;8.93;;;5.87;;
13319;SDS011;59599;47.608;12.190;2023-02-28T06:12:18;6.77;;;5.40;;
13319;SDS011;59599;47.608;12.190;2023-02-28T06:14:44;9.70;;;5.80;;
13319;SDS011;59599;47.608;12.190;2023-02-28T06:17:10;9.57;;;6.87;;
13319;SDS011;59599;47.608;12.190;2023-02-28T06:19:37;9.40;;;6.37;;
13319;SDS011;59599;47.608;12.190;2023-02-28T06:22:03;11.07;;;6.23;;
13319;SDS011;59599;47.608;12.190;2023-02-28T06:24:30;8.07;;;6.00;;
13319;SDS011;59599;47.608;12.190;2023-02-28T06:26:56;7.20;;;5.40;;
13319;SDS011;59599;47.608;12.190;2023-02-28T06:29:23;7.73;;;5.70;;
13319;SDS011;59599;47.608;12.190;2023-02-28T06:31:49;6.23;;;5.50;;
13319;SDS011;59599;47.608;12.190;2023-02-28T06:34:15;9.47;;;6.30;;
13319;SDS011;59599;47.608;12.190;2023-02-28T06:36:42;8.30;;;6.13;;
13319;SDS011;59599;47.608;12.190;2023-02-28T06:39:08;8.20;;;6.00;;
13319;SDS011;59599;47.608;12.190;2023-02-28T06:41:34;9.00;;;6.60;;
13319;SDS011;59599;47.608;12.190;2023-02-28T06:44:10;9.63;;;5.93;;
13319;SDS011;59599;47.608;12.190;2023-02-28T06:46:38;7.37;;;5.73;;
13319;SDS011;59599;47.608;12.190;2023-02-28T06:49:08;9.50;;;6.87;;
13319;SDS011;59599;47.608;12.190;2023-02-28T06:51:34;10.00;;;6.73;;
13319;SDS011;59599;47.608;12.190;2023-02-28T06:54:01;8.27;;;6.33;;
13319;SDS011;59599;47.608;12.190;2023-02-28T06:56:27;11.93;;;6.80;;
13319;SDS011;59599;47.608;12.190;2023-02-28T06:58:53;9.63;;;6.30;;
13319;SDS011;59599;47.608;12.190;2023-02-28T07:01:19;7.03;;;5.63;;
13319;SDS011;59599;47.608;12.190;2023-02-28T07:03:47;8.60;;;5.80;;
13319;SDS011;59599;47.608;12.190;2023-02-28T07:06:17;6.07;;;5.30;;
13319;SDS011;59599;47.608;12.190;2023-02-28T07:08:44;7.30;;;5.10;;
13319;SDS011;59599;47.608;12.190;2023-02-28T07:11:10;6.30;;;5.30;;
13319;SDS011;59599;47.608;12.190;2023-02-28T07:13:36;7.60;;;5.57;;
13319;SDS011;59599;47.608;12.190;2023-02-28T07:16:05;7.30;;;6.10;;
13319;SDS011;59599;47.608;12.190;2023-02-28T07:18:32;9.57;;;6.33;;
13319;SDS011;59599;47.608;12.190;2023-02-28T07:21:01;7.90;;;6.03;;
13319;SDS011;59599;47.608;12.190;2023-02-28T07:23:27;6.47;;;5.20;;
13319;SDS011;59599;47.608;12.190;2023-02-28T07:25:53;8.60;;;5.50;;
13319;SDS011;59599;47.608;12.190;2023-02-28T07:28:18;8.30;;;5.90;;
13319;SDS011;59599;47.608;12.190;2023-02-28T07:30:44;7.50;;;5.83;;
13319;SDS011;59599;47.608;12.190;2023-02-28T07:33:10;8.27;;;6.13;;
13319;SDS011;59599;47.608;12.190;2023-02-28T07:35:36;6.87;;;5.57;;
13319;SDS011;59599;47.608;12.190;2023-02-28T07:38:02;8.70;;;6.07;;
13319;SDS011;59599;47.608;12.190;2023-02-28T07:40:28;7.93;;;6.17;;
13319;SDS011;59599;47.608;12.190;2023-02-28T07:42:54;7.67;;;6.20;;
13319;SDS011;59599;47.608;12.190;2023-02-28T07:45:20;8.77;;;6.00;;
13319;SDS011;59599;47.608;12.190;2023-02-28T07:47:46;9.10;;;6.77;;
13319;SDS011;59599;47.608;12.190;2023-02-28T07:50:14;7.23;;;6.43;;
13319;SDS011;59599;47.608;12.190;2023-02-28T07:52:40;10.17;;;6.20;;
13319;SDS011;59599;47.608;12.190;2023-02-28T07:55:06;8.93;;;6.17;;
13319;SDS011;59599;47.608;12.190;2023-02-28T07:57:33;10.60;;;6.00;;
13319;SDS011;59599;47.608;12.190;2023-02-28T07:59:59;8.47;;;6.27;;
13319;SDS011;59599;47.608;12.190;2023-02-28T08:02:25;6.97;;;5.87;;
13319;SDS011;59599;47.608;12.190;2023-02-28T08:04:51;6.93;;;5.30;;
13319;SDS011;59599;47.608;12.190;2023-02-28T08:07:17;7.63;;;6.00;;
13319;SDS011;59599;47.608;12.190;2023-02-28T08:09:43;7.97;;;6.03;;
13319;SDS011;59599;47.608;12.190;2023-02-28T08:12:09;7.40;;;5.67;;
13319;SDS011;59599;47.608;12.190;2023-02-28T08:14:36;6.03;;;5.43;;
13319;SDS011;59599;47.608;12.190;2023-02-28T08:17:02;9.83;;;6.10;;
13319;SDS011;59599;47.608;12.190;2023-02-28T08:19:28;6.77;;;5.63;;
13319;SDS011;59599;47.608;12.190;2023-02-28T08:21:54;13.53;;;7.17;;
13319;SDS011;59599;47.608;12.190;2023-02-28T08:24:20;9.03;;;6.03;;
13319;SDS011;59599;47.608;12.190;2023-02-28T08:26:46;11.17;;;6.93;;
13319;SDS011;59599;47.608;12.190;2023-02-28T08:29:12;12.13;;;7.70;;
13319;SDS011;59599;47.608;12.190;2023-02-28T08:31:38;13.20;;;6.93;;
13319;SDS011;59599;47.608;12.190;2023-02-28T08:34:10;10.93;;;7.23;;
13319;SDS011;59599;47.608;12.190;2023-02-28T08:36:36;10.93;;;7.50;;
13319;SDS011;59599;47.608;12.190;2023-02-28T08:39:03;11.93;;;8.23;;
13319;SDS011;59599;47.608;12.190;2023-02-28T08:41:29;11.23;;;7.67;;
13319;SDS011;59599;47.608;12.190;2023-02-28T08:43:55;13.23;;;9.00;;
13319;SDS011;59599;47.608;12.190;2023-02-28T08:46:21;17.73;;;10.90;;
13319;SDS011;59599;47.608;12.190;2023-02-28T08:48:46;12.63;;;9.67;;
13319;SDS011;59599;47.608;12.190;2023-02-28T08:51:14;12.57;;;7.90;;
13319;SDS011;59599;47.608;12.190;2023-02-28T08:53:46;11.07;;;8.10;;
13319;SDS011;59599;47.608;12.190;2023-02-28T08:56:15;13.17;;;7.60;;
13319;SDS011;59599;47.608;12.190;2023-02-28T08:58:41;8.40;;;6.60;;
13319;SDS011;59599;47.608;12.190;2023-02-28T09:01:09;15.67;;;7.27;;
13319;SDS011;59599;47.608;12.190;2023-02-28T09:03:35;9.87;;;6.63;;
13319;SDS011;59599;47.608;12.190;2023-02-28T09:06:01;17.13;;;7.20;;
13319;SDS011;59599;47.608;12.190;2023-02-28T09:08:28;12.83;;;7.27;;
13319;SDS011;59599;47.608;12.190;2023-02-28T09:10:55;10.33;;;6.87;;
13319;SDS011;59599;47.608;12.190;2023-02-28T09:13:23;11.20;;;6.40;;
13319;SDS011;59599;47.608;12.190;2023-02-28T09:15:48;12.10;;;5.77;;
13319;SDS011;59599;47.608;12.190;2023-02-28T09:18:14;12.53;;;6.67;;
13319;SDS011;59599;47.608;12.190;2023-02-28T09:20:41;11.57;;;5.40;;
13319;SDS011;59599;47.608;12.190;2023-02-28T09:23:08;9.87;;;6.23;;
13319;SDS011;59599;47.608;12.190;2023-02-28T09:25:35;9.30;;;5.80;;
13319;SDS011;59599;47.608;12.190;2023-02-28T09:28:01;9.00;;;6.20;;
13319;SDS011;59599;47.608;12.190;2023-02-28T09:30:27;6.70;;;5.53;;
13319;SDS011;59599;47.608;12.190;2023-02-28T09:32:53;6.87;;;5.47;;
13319;SDS011;59599;47.608;12.190;2023-02-28T09:35:23;6.90;;;5.50;;
13319;SDS011;59599;47.608;12.190;2023-02-28T09:37:51;10.90;;;7.30;;
13319;SDS011;59599;47.608;12.190;2023-02-28T09:40:18;10.63;;;6.13;;
13319;SDS011;59599;47.608;12.190;2023-02-28T09:42:46;9.60;;;6.50;;
13319;SDS011;59599;47.608;12.190;2023-02-28T09:45:21;16.07;;;8.00;;
13319;SDS011;59599;47.608;12.190;2023-02-28T09:47:51;12.23;;;7.80;;
13319;SDS011;59599;47.608;12.190;2023-02-28T09:52:45;18.40;;;6.70;;
13319;SDS011;59599;47.608;12.190;2023-02-28T09:57:40;12.10;;;5.90;;
13319;SDS011;59599;47.608;12.190;2023-02-28T10:00:13;7.40;;;6.37;;
13319;SDS011;59599;47.608;12.190;2023-02-28T10:10:55;7.00;;;6.30;;
13319;SDS011;59599;47.608;12.190;2023-02-28T10:13:46;7.60;;;5.77;;
13319;SDS011;59599;47.608;12.190;2023-02-28T10:16:35;10.23;;;7.03;;
13319;SDS011;59599;47.608;12.190;2023-02-28T10:19:21;8.30;;;6.57;;
13319;SDS011;59599;47.608;12.190;2023-02-28T10:21:58;8.10;;;6.80;;
13319;SDS011;59599;47.608;12.190;2023-02-28T10:27:13;8.20;;;6.50;;
13319;SDS011;59599;47.608;12.190;2023-02-28T10:29:40;8.67;;;6.63;;
13319;SDS011;59599;47.608;12.190;2023-02-28T10:32:08;8.80;;;6.67;;
13319;SDS011;59599;47.608;12.190;2023-02-28T10:34:36;10.30;;;7.30;;
13319;SDS011;59599;47.608;12.190;2023-02-28T10:37:02;12.80;;;7.43;;
13319;SDS011;59599;47.608;12.190;2023-02-28T10:42:27;8.47;;;6.83;;
13319;SDS011;59599;47.608;12.190;2023-02-28T10:45:13;9.27;;;7.37;;
13319;SDS011;59599;47.608;12.190;2023-02-28T10:53:45;13.17;;;7.17;;
13319;SDS011;59599;47.608;12.190;2023-02-28T10:56:05;8.53;;;6.80;;
13319;SDS011;59599;47.608;12.190;2023-02-28T10:58:48;8.17;;;7.27;;
13319;SDS011;59599;47.608;12.190;2023-02-28T11:01:22;7.73;;;6.73;;
13319;SDS011;59599;47.608;12.190;2023-02-28T11:04:03;8.50;;;6.73;;
13319;SDS011;59599;47.608;12.190;2023-02-28T11:06:30;10.90;;;7.80;;
13319;SDS011;59599;47.608;12.190;2023-02-28T11:11:24;9.50;;;7.27;;
13319;SDS011;59599;47.608;12.190;2023-02-28T11:14:25;11.20;;;7.50;;
13319;SDS011;59599;47.608;12.190;2023-02-28T11:16:47;8.43;;;7.60;;
13319;SDS011;59599;47.608;12.190;2023-02-28T11:19:19;8.53;;;7.20;;
13319;SDS011;59599;47.608;12.190;2023-02-28T11:21:48;9.00;;;7.50;;
13319;SDS011;59599;47.608;12.190;2023-02-28T11:24:26;9.80;;;7.60;;
13319;SDS011;59599;47.608;12.190;2023-02-28T11:26:52;8.73;;;7.43;;
13319;SDS011;59599;47.608;12.190;2023-02-28T11:29:26;8.03;;;7.23;;
13319;SDS011;59599;47.608;12.190;2023-02-28T11:34:27;8.50;;;7.53;;
13319;SDS011;59599;47.608;12.190;2023-02-28T11:36:57;12.87;;;7.90;;
13319;SDS011;59599;47.608;12.190;2023-02-28T11:39:25;8.40;;;7.33;;
13319;SDS011;59599;47.608;12.190;2023-02-28T11:47:09;13.27;;;8.07;;
13319;SDS011;59599;47.608;12.190;2023-02-28T11:49:42;9.40;;;7.50;;
13319;SDS011;59599;47.608;12.190;2023-02-28T11:55:26;9.97;;;8.07;;
13319;SDS011;59599;47.608;12.190;2023-02-28T12:04:11;10.97;;;7.67;;
13319;SDS011;59599;47.608;12.190;2023-02-28T12:06:15;13.87;;;8.07;;
13319;SDS011;59599;47.608;12.190;2023-02-28T12:12:18;14.27;;;8.63;;
13319;SDS011;59599;47.608;12.190;2023-02-28T12:17:43;9.57;;;8.57;;
13319;SDS011;59599;47.608;12.190;2023-02-28T12:23:21;10.63;;;8.40;;
13319;SDS011;59599;47.608;12.190;2023-02-28T12:29:13;11.53;;;8.70;;
13319;SDS011;59599;47.608;12.190;2023-02-28T12:31:51;10.10;;;9.03;;
13319;SDS011;59599;47.608;12.190;2023-02-28T12:34:41;10.53;;;9.43;;
13319;SDS011;59599;47.608;12.190;2023-02-28T12:37:23;11.07;;;9.17;;
13319;SDS011;59599;47.608;12.190;2023-02-28T12:39:51;10.13;;;8.50;;
13319;SDS011;59599;47.608;12.190;2023-02-28T12:42:26;12.70;;;9.30;;
13319;SDS011;59599;47.608;12.190;2023-02-28T12:45:10;10.90;;;9.80;;
13319;SDS011;59599;47.608;12.190;2023-02-28T12:47:40;11.10;;;8.80;;
13319;SDS011;59599;47.608;12.190;2023-02-28T12:50:10;10.57;;;9.27;;
13319;SDS011;59599;47.608;12.190;2023-02-28T12:55:43;12.53;;;9.43;;
13319;SDS011;59599;47.608;12.190;2023-02-28T12:58:22;11.53;;;9.43;;
13319;SDS011;59599;47.608;12.190;2023-02-28T13:09:31;12.37;;;9.70;;
13319;SDS011;59599;47.608;12.190;2023-02-28T13:11:57;13.10;;;9.70;;
13319;SDS011;59599;47.608;12.190;2023-02-28T13:22:20;11.53;;;9.20;;
13319;SDS011;59599;47.608;12.190;2023-02-28T13:27:58;11.73;;;10.17;;
13319;SDS011;59599;47.608;12.190;2023-02-28T13:33:25;11.37;;;10.00;;
13319;SDS011;59599;47.608;12.190;2023-02-28T13:46:32;13.43;;;10.70;;
13319;SDS011;59599;47.608;12.190;2023-02-28T13:51:46;12.27;;;10.97;;
13319;SDS011;59599;47.608;12.190;2023-02-28T13:54:18;12.23;;;10.67;;
13319;SDS011;59599;47.608;12.190;2023-02-28T14:05:46;12.27;;;10.60;;
13319;SDS011;59599;47.608;12.190;2023-02-28T14:08:19;11.53;;;10.00;;
13319;SDS011;59599;47.608;12.190;2023-02-28T14:10:47;11.53;;;10.33;;
13319;SDS011;59599;47.608;12.190;2023-02-28T14:16:10;11.53;;;9.83;;
13319;SDS011;59599;47.608;12.190;2023-02-28T14:18:40;12.20;;;10.67;;
13319;SDS011;59599;47.608;12.190;2023-02-28T14:26:53;12.33;;;10.23;;
13319;SDS011;59599;47.608;12.190;2023-02-28T14:29:45;11.40;;;10.20;;
13319;SDS011;59599;47.608;12.190;2023-02-28T14:32:44;13.80;;;10.50;;
13319;SDS011;59599;47.608;12.190;2023-02-28T14:38:25;11.63;;;9.70;;
13319;SDS011;59599;47.608;12.190;2023-02-28T14:41:14;11.80;;;10.47;;
13319;SDS011;59599;47.608;12.190;2023-02-28T14:43:51;12.27;;;9.90;;
13319;SDS011;59599;47.608;12.190;2023-02-28T14:46:44;12.07;;;10.07;;
13319;SDS011;59599;47.608;12.190;2023-02-28T14:51:50;12.43;;;10.70;;
13319;SDS011;59599;47.608;12.190;2023-02-28T14:54:37;14.13;;;10.03;;
13319;SDS011;59599;47.608;12.190;2023-02-28T14:57:04;11.10;;;9.80;;
13319;SDS011;59599;47.608;12.190;2023-02-28T14:59:34;11.60;;;10.40;;
13319;SDS011;59599;47.608;12.190;2023-02-28T15:02:16;11.57;;;10.37;;
13319;SDS011;59599;47.608;12.190;2023-02-28T15:04:57;10.67;;;9.53;;
13319;SDS011;59599;47.608;12.190;2023-02-28T15:07:24;10.20;;;9.20;;
13319;SDS011;59599;47.608;12.190;2023-02-28T15:10:06;10.40;;;9.17;;
13319;SDS011;59599;47.608;12.190;2023-02-28T15:12:32;13.20;;;10.40;;
13319;SDS011;59599;47.608;12.190;2023-02-28T15:14:58;14.37;;;11.47;;
13319;SDS011;59599;47.608;12.190;2023-02-28T15:17:24;12.23;;;10.87;;
13319;SDS011;59599;47.608;12.190;2023-02-28T15:19:51;13.03;;;11.20;;
13319;SDS011;59599;47.608;12.190;2023-02-28T15:22:19;13.13;;;11.50;;
13319;SDS011;59599;47.608;12.190;2023-02-28T15:24:53;13.00;;;11.33;;
13319;SDS011;59599;47.608;12.190;2023-02-28T15:27:20;12.87;;;11.53;;
13319;SDS011;59599;47.608;12.190;2023-02-28T15:29:49;14.07;;;11.03;;
13319;SDS011;59599;47.608;12.190;2023-02-28T15:34:46;12.93;;;11.53;;
13319;SDS011;59599;47.608;12.190;2023-02-28T15:39:50;12.63;;;11.20;;
13319;SDS011;59599;47.608;12.190;2023-02-28T15:42:21;13.50;;;11.10;;
13319;SDS011;59599;47.608;12.190;2023-02-28T15:44:52;14.50;;;11.13;;
13319;SDS011;59599;47.608;12.190;2023-02-28T15:47:19;12.97;;;11.00;;
13319;SDS011;59599;47.608;12.190;2023-02-28T15:49:47;14.87;;;11.70;;
13319;SDS011;59599;47.608;12.190;2023-02-28T15:52:17;15.10;;;12.00;;
13319;SDS011;59599;47.608;12.190;2023-02-28T15:54:53;14.43;;;11.47;;
13319;SDS011;59599;47.608;12.190;2023-02-28T15:57:20;14.53;;;11.73;;
13319;SDS011;59599;47.608;12.190;2023-02-28T15:59:51;15.77;;;10.93;;
13319;SDS011;59599;47.608;12.190;2023-02-28T16:02:19;11.63;;;10.40;;
13319;SDS011;59599;47.608;12.190;2023-02-28T16:07:33;15.30;;;13.03;;
13319;SDS011;59599;47.608;12.190;2023-02-28T16:10:00;14.13;;;12.23;;
13319;SDS011;59599;47.608;12.190;2023-02-28T16:12:27;15.23;;;11.67;;
13319;SDS011;59599;47.608;12.190;2023-02-28T16:14:55;18.47;;;12.63;;
13319;SDS011;59599;47.608;12.190;2023-02-28T16:17:22;13.87;;;12.03;;
13319;SDS011;59599;47.608;12.190;2023-02-28T16:19:53;13.33;;;11.93;;
13319;SDS011;59599;47.608;12.190;2023-02-28T16:22:19;17.67;;;12.60;;
13319;SDS011;59599;47.608;12.190;2023-02-28T16:24:45;17.43;;;13.70;;
13319;SDS011;59599;47.608;12.190;2023-02-28T16:27:20;15.67;;;13.27;;
13319;SDS011;59599;47.608;12.190;2023-02-28T16:29:49;15.10;;;12.93;;
13319;SDS011;59599;47.608;12.190;2023-02-28T16:32:15;17.93;;;12.47;;
13319;SDS011;59599;47.608;12.190;2023-02-28T16:34:43;16.17;;;12.57;;
13319;SDS011;59599;47.608;12.190;2023-02-28T16:37:10;14.60;;;11.97;;
13319;SDS011;59599;47.608;12.190;2023-02-28T16:39:36;16.70;;;12.87;;
13319;SDS011;59599;47.608;12.190;2023-02-28T16:42:02;17.50;;;13.10;;
13319;SDS011;59599;47.608;12.190;2023-02-28T16:44:32;17.20;;;13.03;;
13319;SDS011;59599;47.608;12.190;2023-02-28T16:47:02;17.50;;;14.23;;
13319;SDS011;59599;47.608;12.190;2023-02-28T16:49:28;16.23;;;13.60;;
13319;SDS011;59599;47.608;12.190;2023-02-28T16:51:54;14.77;;;13.20;;
13319;SDS011;59599;47.608;12.190;2023-02-28T16:54:21;16.47;;;13.13;;
13319;SDS011;59599;47.608;12.190;2023-02-28T16:56:47;17.00;;;13.07;;
13319;SDS011;59599;47.608;12.190;2023-02-28T16:59:13;19.10;;;14.70;;
13319;SDS011;59599;47.608;12.190;2023-02-28T17:01:40;17.07;;;14.07;;
13319;SDS011;59599;47.608;12.190;2023-02-28T17:04:08;20.10;;;14.70;;
13319;SDS011;59599;47.608;12.190;2023-02-28T17:06:34;18.57;;;14.60;;
13319;SDS011;59599;47.608;12.190;2023-02-28T17:09:00;31.40;;;17.53;;
13319;SDS011;59599;47.608;12.190;2023-02-28T17:11:26;30.00;;;20.03;;
13319;SDS011;59599;47.608;12.190;2023-02-28T17:13:51;27.10;;;18.63;;
13319;SDS011;59599;47.608;12.190;2023-02-28T17:16:30;27.40;;;18.97;;
13319;SDS011;59599;47.608;12.190;2023-02-28T17:18:58;20.63;;;16.20;;
13319;SDS011;59599;47.608;12.190;2023-02-28T17:21:24;16.57;;;13.93;;
13319;SDS011;59599;47.608;12.190;2023-02-28T17:23:50;17.67;;;14.30;;
13319;SDS011;59599;47.608;12.190;2023-02-28T17:26:16;18.97;;;14.43;;
13319;SDS011;59599;47.608;12.190;2023-02-28T17:28:45;18.17;;;15.10;;
13319;SDS011;59599;47.608;12.190;2023-02-28T17:31:10;19.23;;;14.97;;
13319;SDS011;59599;47.608;12.190;2023-02-28T17:33:36;19.37;;;14.63;;
13319;SDS011;59599;47.608;12.190;2023-02-28T17:36:02;16.30;;;14.10;;
13319;SDS011;59599;47.608;12.190;2023-02-28T17:38:28;17.67;;;14.60;;
13319;SDS011;59599;47.608;12.190;2023-02-28T17:40:54;19.53;;;14.70;;
13319;SDS011;59599;47.608;12.190;2023-02-28T17:43:22;19.63;;;14.13;;
13319;SDS011;59599;47.608;12.190;2023-02-28T17:45:48;16.57;;;14.50;;
13319;SDS011;59599;47.608;12.190;2023-02-28T17:48:14;17.17;;;14.83;;
13319;SDS011;59599;47.608;12.190;2023-02-28T17:50:40;19.80;;;14.93;;
13319;SDS011;59599;47.608;12.190;2023-02-28T17:53:06;18.80;;;15.87;;
13319;SDS011;59599;47.608;12.190;2023-02-28T17:55:32;19.90;;;15.37;;
13319;SDS011;59599;47.608;12.190;2023-02-28T17:57:59;19.23;;;15.10;;
13319;SDS011;59599;47.608;12.190;2023-02-28T18:00:25;17.53;;;14.50;;
13319;SDS011;59599;47.608;12.190;2023-02-28T18:02:51;17.60;;;14.23;;
13319;SDS011;59599;47.608;12.190;2023-02-28T18:05:17;17.83;;;14.70;;
13319;SDS011;59599;47.608;12.190;2023-02-28T18:07:43;20.37;;;15.13;;
13319;SDS011;59599;47.608;12.190;2023-02-28T18:10:13;18.87;;;14.77;;
13319;SDS011;59599;47.608;12.190;2023-02-28T18:12:40;18.57;;;14.73;;
13319;SDS011;59599;47.608;12.190;2023-02-28T18:15:07;17.87;;;14.73;;
13319;SDS011;59599;47.608;12.190;2023-02-28T18:17:32;17.83;;;14.60;;
13319;SDS011;59599;47.608;12.190;2023-02-28T18:19:59;20.00;;;15.00;;
13319;SDS011;59599;47.608;12.190;2023-02-28T18:22:24;19.57;;;14.57;;
13319;SDS011;59599;47.608;12.190;2023-02-28T18:24:50;18.80;;;16.20;;
13319;SDS011;59599;47.608;12.190;2023-02-28T18:27:16;18.93;;;14.90;;
13319;SDS011;59599;47.608;12.190;2023-02-28T18:29:41;19.23;;;14.87;;
13319;SDS011;59599;47.608;12.190;2023-02-28T18:32:07;22.47;;;16.50;;
13319;SDS011;59599;47.608;12.190;2023-02-28T18:34:33;20.03;;;15.77;;
13319;SDS011;59599;47.608;12.190;2023-02-28T18:36:59;21.20;;;15.37;;